Am 5. und 6.7. fand das traditionelle Holzfliegertreffen statt. 

Eine Beschreibung folgt in Kürze (hoffentlich)

Foto 1.JPG
Foto 1.JPG Foto 1.JPG
Foto 2.JPG
Foto 2.JPG Foto 2.JPG
Foto 3.JPG
Foto 3.JPG Foto 3.JPG
Foto 4.JPG
Foto 4.JPG Foto 4.JPG

 

 

 
NEU! ab. 1.4.
Nortel Info 128,740 MHz

WebCam

  
Kamera Halle
Kamera Vorfeld
Wetter EDDS

METAR

EDDS 211350Z 36005KT 320V050 9999 FEW018 M01/M05 Q1019 NOSIG =
EDDS 211100Z 2112/2212 VRB02KT 9999 FEW030 BECMG 2123/2202 4500 BR PROB40 TEMPO 2202/2207 2500 BR BKN005 BECMG 2207/2209 9000


TAF

EDDS 211100Z 2112/2212 VRB02KT 9999 FEW030 BECMG 2123/2202 4500 BR PROB40 TEMPO 2202/2207 2500 BR BKN005 BECMG 2207/2209 9000 =


SR/SS

07:03 / 16:01 UTC
(EDSO 21-01-2019)